createdAt,value
2023-01-02T00:01:44.108Z,46.35
2023-01-02T00:04:14.270Z,46.29
2023-01-02T00:06:44.285Z,46.16
2023-01-02T00:09:11.051Z,46.40
2023-01-02T00:11:37.882Z,46.28
2023-01-02T00:14:04.590Z,46.03
2023-01-02T00:16:34.033Z,46.17
2023-01-02T00:19:04.498Z,46.10
2023-01-02T00:21:31.334Z,46.10
2023-01-02T00:24:00.861Z,46.26
2023-01-02T00:26:29.672Z,45.97
2023-01-02T00:28:56.307Z,46.35
2023-01-02T00:31:23.023Z,45.94
2023-01-02T00:33:49.957Z,46.09
2023-01-02T00:36:19.267Z,46.42
2023-01-02T00:38:45.906Z,46.03
2023-01-02T00:41:15.360Z,45.99
2023-01-02T00:43:42.197Z,46.13
2023-01-02T00:46:12.448Z,45.91
2023-01-02T00:48:40.339Z,45.97
2023-01-02T00:51:07.454Z,46.05
2023-01-02T00:53:36.814Z,46.18
2023-01-02T00:56:09.511Z,45.93
2023-01-02T00:58:36.274Z,45.93
2023-01-02T01:01:03.215Z,45.93
2023-01-02T01:03:33.550Z,45.92
2023-01-02T01:06:06.362Z,45.92
2023-01-02T01:08:35.080Z,46.09
2023-01-02T01:11:08.450Z,45.90
2023-01-02T01:13:36.435Z,45.87
2023-01-02T01:16:08.031Z,45.84
2023-01-02T01:18:38.825Z,45.98
2023-01-02T01:21:14.245Z,46.02
2023-01-02T01:23:41.633Z,46.06
2023-01-02T01:26:11.170Z,46.61
2023-01-02T01:28:41.246Z,45.79
2023-01-02T01:31:15.506Z,45.88
2023-01-02T01:33:48.493Z,46.01
2023-01-02T01:36:18.597Z,45.91
2023-01-02T01:38:45.805Z,45.86
2023-01-02T01:41:17.167Z,45.59
2023-01-02T01:43:47.813Z,45.79
2023-01-02T01:46:31.860Z,45.78
2023-01-02T01:49:16.801Z,45.84
2023-01-02T01:51:53.179Z,45.86
2023-01-02T01:54:26.651Z,45.93
2023-01-02T01:57:02.892Z,45.75
2023-01-02T01:59:35.643Z,45.93
2023-01-02T02:02:06.676Z,45.90
2023-01-02T02:04:37.814Z,45.86
2023-01-02T02:07:04.755Z,45.87
2023-01-02T02:09:59.727Z,45.91
2023-01-02T02:12:29.870Z,45.80
2023-01-02T02:14:56.465Z,45.91
2023-01-02T02:17:54.123Z,45.83
2023-01-02T02:20:31.426Z,45.84
2023-01-02T02:23:29.084Z,45.69
2023-01-02T02:26:12.433Z,45.74
2023-01-02T02:29:11.068Z,45.74
2023-01-02T02:31:57.676Z,45.88
2023-01-02T02:34:36.362Z,45.69
2023-01-02T02:37:15.043Z,45.68
2023-01-02T02:40:16.396Z,45.97
2023-01-02T02:43:01.907Z,45.58
2023-01-02T02:45:55.018Z,45.67
2023-01-02T02:48:53.106Z,45.57
2023-01-02T02:51:30.685Z,45.45
2023-01-02T02:54:10.836Z,45.59
2023-01-02T02:56:42.001Z,45.83
2023-01-02T02:59:09.519Z,45.61
2023-01-02T03:01:39.479Z,45.53
2023-01-02T03:04:16.898Z,45.63
2023-01-02T03:06:58.434Z,45.62
2023-01-02T03:10:07.233Z,45.78
2023-01-02T03:13:15.570Z,45.58
2023-01-02T03:16:00.219Z,45.56
2023-01-02T03:18:46.867Z,45.49
2023-01-02T03:21:29.486Z,45.39
2023-01-02T03:24:02.077Z,45.68
2023-01-02T03:26:40.681Z,45.36
2023-01-02T03:29:13.430Z,45.49
2023-01-02T03:31:44.987Z,45.45
2023-01-02T03:34:19.379Z,45.39
2023-01-02T03:36:54.235Z,45.49
2023-01-02T03:39:26.343Z,45.53
2023-01-02T03:42:32.350Z,45.49
2023-01-02T03:45:08.002Z,45.44
2023-01-02T03:47:47.284Z,45.44
2023-01-02T03:50:52.291Z,45.41
2023-01-02T03:53:20.562Z,45.35
2023-01-02T03:56:07.278Z,45.38
2023-01-02T03:58:46.931Z,45.54
2023-01-02T04:01:25.784Z,45.39
2023-01-02T04:03:58.183Z,45.32
2023-01-02T04:06:32.703Z,45.23
2023-01-02T04:09:10.820Z,45.33
2023-01-02T04:11:45.644Z,45.25
2023-01-02T04:14:22.371Z,45.49
2023-01-02T04:16:50.955Z,45.20
2023-01-02T04:19:31.574Z,45.14
2023-01-02T04:22:03.026Z,45.33
2023-01-02T04:24:35.171Z,45.14
2023-01-02T04:27:20.681Z,45.22
2023-01-02T04:29:50.181Z,45.23
2023-01-02T04:32:42.193Z,45.31
2023-01-02T04:35:20.976Z,45.31
2023-01-02T04:37:48.366Z,45.17
2023-01-02T04:40:44.763Z,45.30
2023-01-02T04:43:19.383Z,45.16
2023-01-02T04:45:50.145Z,45.14
2023-01-02T04:48:20.704Z,45.33
2023-01-02T04:50:50.939Z,45.34
2023-01-02T04:53:17.662Z,45.11
2023-01-02T04:55:55.334Z,45.08
2023-01-02T04:58:22.300Z,45.03
2023-01-02T05:00:55.199Z,45.05
2023-01-02T05:03:21.892Z,45.04
2023-01-02T05:06:02.107Z,45.02
2023-01-02T05:08:37.504Z,44.97
2023-01-02T05:11:08.072Z,44.98
2023-01-02T05:13:34.872Z,45.08
2023-01-02T05:16:01.639Z,45.19
2023-01-02T05:18:29.427Z,45.04
2023-01-02T05:21:02.897Z,45.18
2023-01-02T05:23:29.943Z,45.13
2023-01-02T05:25:59.559Z,45.20
2023-01-02T05:28:26.255Z,45.21
2023-01-02T05:30:53.031Z,45.59
2023-01-02T05:33:19.749Z,45.35
2023-01-02T05:35:46.524Z,45.39
2023-01-02T05:38:16.083Z,45.54
2023-01-02T05:40:42.850Z,45.54
2023-01-02T05:43:09.588Z,45.49
2023-01-02T05:45:42.192Z,45.11
2023-01-02T05:48:08.898Z,44.53
2023-01-02T05:50:35.620Z,43.51
2023-01-02T05:53:02.258Z,43.39
2023-01-02T05:55:29.384Z,43.30
2023-01-02T05:57:56.113Z,43.52
2023-01-02T06:00:22.835Z,43.24
2023-01-02T06:02:55.570Z,44.19
2023-01-02T06:05:25.101Z,44.50
2023-01-02T06:07:51.738Z,44.73
2023-01-02T06:10:18.438Z,44.63
2023-01-02T06:12:48.627Z,45.01
2023-01-02T06:15:15.407Z,45.19
2023-01-02T06:17:42.068Z,45.35
2023-01-02T06:20:12.188Z,45.64
2023-01-02T06:22:41.678Z,45.39
2023-01-02T06:25:08.591Z,45.33
2023-01-02T06:27:35.389Z,45.49
2023-01-02T06:30:04.740Z,45.86
2023-01-02T06:32:31.442Z,45.73
2023-01-02T06:34:58.351Z,45.69
2023-01-02T06:37:24.964Z,45.85
2023-01-02T06:39:51.669Z,46.04
2023-01-02T06:42:18.382Z,46.32
2023-01-02T06:44:45.111Z,46.22
2023-01-02T06:47:11.875Z,45.86
2023-01-02T06:49:42.047Z,45.87
2023-01-02T06:52:12.117Z,45.76
2023-01-02T06:54:38.733Z,45.80
2023-01-02T06:57:05.492Z,46.19
2023-01-02T06:59:32.297Z,46.40
2023-01-02T07:02:02.315Z,45.30
2023-01-02T07:04:32.023Z,45.32
2023-01-02T07:07:02.448Z,45.97
2023-01-02T07:09:30.170Z,46.49
2023-01-02T07:11:57.202Z,46.34
2023-01-02T07:14:27.329Z,46.86
2023-01-02T07:16:57.567Z,46.71
2023-01-02T07:19:26.270Z,46.80
2023-01-02T07:21:53.541Z,46.58
2023-01-02T07:24:26.122Z,46.81
2023-01-02T07:26:52.909Z,46.88
2023-01-02T07:29:26.289Z,46.71
2023-01-02T07:31:52.988Z,46.69
2023-01-02T07:34:22.645Z,46.46
2023-01-02T07:36:52.182Z,45.95
2023-01-02T07:39:18.956Z,46.37
2023-01-02T07:41:48.300Z,46.95
2023-01-02T07:44:15.195Z,47.04
2023-01-02T07:46:41.918Z,46.99
2023-01-02T07:49:12.100Z,47.17
2023-01-02T07:51:41.832Z,47.41
2023-01-02T07:54:08.554Z,47.90
2023-01-02T07:56:37.868Z,48.07
2023-01-02T07:59:10.898Z,47.92
2023-01-02T08:01:40.665Z,48.05
2023-01-02T08:04:07.577Z,47.96
2023-01-02T08:06:34.351Z,47.97
2023-01-02T08:09:04.459Z,47.96
2023-01-02T08:11:34.165Z,47.88
2023-01-02T08:14:00.894Z,48.08
2023-01-02T08:16:27.652Z,47.79
2023-01-02T08:18:58.223Z,47.62
2023-01-02T08:21:26.416Z,47.62
2023-01-02T08:23:53.691Z,47.16
2023-01-02T08:26:20.708Z,47.33
2023-01-02T08:28:47.462Z,47.55
2023-01-02T08:31:20.323Z,47.55
2023-01-02T08:33:49.916Z,47.24
2023-01-02T08:36:19.470Z,47.60
2023-01-02T08:38:49.705Z,47.44
2023-01-02T08:41:31.102Z,47.49
2023-01-02T08:44:03.716Z,47.64
2023-01-02T08:46:42.390Z,47.62
2023-01-02T08:49:13.368Z,47.77
2023-01-02T08:51:40.657Z,47.56
2023-01-02T08:54:10.811Z,47.57
2023-01-02T08:56:37.540Z,47.55
2023-01-02T08:59:07.599Z,47.64
2023-01-02T09:01:35.467Z,47.65
2023-01-02T09:04:07.775Z,47.76
2023-01-02T09:06:37.551Z,47.85
2023-01-02T09:09:17.279Z,47.22
2023-01-02T09:11:50.592Z,46.62
2023-01-02T09:14:19.481Z,46.97
2023-01-02T09:16:46.995Z,47.13
2023-01-02T09:19:17.553Z,47.26
2023-01-02T09:21:47.580Z,47.04
2023-01-02T09:24:14.503Z,47.25
2023-01-02T09:26:41.493Z,47.20
2023-01-02T09:29:15.864Z,47.23
2023-01-02T09:31:44.973Z,47.25
2023-01-02T09:34:15.939Z,47.20
2023-01-02T09:36:46.104Z,47.18
2023-01-02T09:39:12.822Z,47.18
2023-01-02T09:41:50.271Z,47.18
2023-01-02T09:44:42.547Z,47.15
2023-01-02T09:47:18.374Z,47.01
2023-01-02T09:49:53.607Z,47.14
2023-01-02T09:52:30.331Z,47.16
2023-01-02T09:54:58.249Z,47.04
2023-01-02T09:57:28.067Z,46.59
2023-01-02T09:59:58.008Z,46.89
2023-01-02T10:02:39.773Z,47.22
2023-01-02T10:05:31.279Z,47.46
2023-01-02T10:08:32.793Z,47.56
2023-01-02T10:11:05.832Z,47.52
2023-01-02T10:14:16.741Z,47.55
2023-01-02T10:16:31.332Z,47.56
2023-01-02T10:19:02.039Z,47.36
2023-01-02T10:21:37.744Z,46.74
2023-01-02T10:24:31.676Z,47.32
2023-01-02T10:26:59.407Z,47.62
2023-01-02T10:29:55.246Z,47.89
2023-01-02T10:32:25.315Z,48.17
2023-01-02T10:35:07.375Z,48.48
2023-01-02T10:37:40.101Z,48.74
2023-01-02T10:40:11.476Z,49.04
2023-01-02T10:42:38.329Z,49.49
2023-01-02T10:45:07.725Z,49.99
2023-01-02T10:47:39.053Z,50.51
2023-01-02T10:50:08.549Z,50.62
2023-01-02T10:52:48.975Z,50.95
2023-01-02T10:55:34.227Z,51.58
2023-01-02T10:58:17.907Z,51.70
2023-01-02T11:00:44.763Z,51.84
2023-01-02T11:03:22.213Z,52.20
2023-01-02T11:05:59.309Z,52.32
2023-01-02T11:08:39.622Z,52.47
2023-01-02T11:11:19.317Z,52.77
2023-01-02T11:13:54.128Z,53.04
2023-01-02T11:16:23.577Z,53.80
2023-01-02T11:18:56.273Z,54.23
2023-01-02T11:21:40.430Z,54.39
2023-01-02T11:24:20.517Z,54.08
2023-01-02T11:26:50.349Z,54.49
2023-01-02T11:29:34.636Z,54.66
2023-01-02T11:32:06.130Z,54.33
2023-01-02T11:34:34.512Z,54.58
2023-01-02T11:37:17.314Z,54.93
2023-01-02T11:39:58.955Z,54.93
2023-01-02T11:42:53.059Z,55.17
2023-01-02T11:45:23.753Z,55.06
2023-01-02T11:48:00.358Z,54.90
2023-01-02T11:50:34.762Z,54.91
2023-01-02T11:53:13.772Z,54.92
2023-01-02T11:55:58.694Z,54.43
2023-01-02T11:59:07.812Z,54.28
2023-01-02T12:01:41.459Z,54.20
2023-01-02T12:04:13.535Z,54.42
2023-01-02T12:06:48.474Z,54.09
2023-01-02T12:09:45.101Z,54.41
2023-01-02T12:12:36.545Z,54.47
2023-01-02T12:15:45.547Z,55.03
2023-01-02T12:18:37.432Z,55.29
2023-01-02T12:21:20.118Z,55.77
2023-01-02T12:24:05.376Z,55.43
2023-01-02T12:26:57.974Z,55.17
2023-01-02T12:30:07.716Z,54.81
2023-01-02T12:32:50.605Z,54.90
2023-01-02T12:36:08.227Z,54.90
2023-01-02T12:38:46.960Z,54.64
2023-01-02T12:41:25.730Z,54.67
2023-01-02T12:44:12.416Z,54.80
2023-01-02T12:47:01.382Z,54.47
2023-01-02T12:50:14.133Z,54.36
2023-01-02T12:52:49.798Z,54.34
2023-01-02T12:55:28.551Z,54.08
2023-01-02T12:58:15.342Z,54.04
2023-01-02T13:00:49.487Z,54.26
2023-01-02T13:03:34.896Z,54.15
2023-01-02T13:06:07.541Z,54.35
2023-01-02T13:09:01.980Z,54.30
2023-01-02T13:11:54.792Z,54.15
2023-01-02T13:14:33.378Z,54.16
2023-01-02T13:17:27.845Z,53.65
2023-01-02T13:20:22.271Z,53.65
2023-01-02T13:23:10.208Z,52.77
2023-01-02T13:25:45.088Z,51.84
2023-01-02T13:28:18.122Z,52.87
2023-01-02T13:31:05.416Z,53.26
2023-01-02T13:33:40.044Z,53.12
2023-01-02T13:36:24.392Z,53.03
2023-01-02T13:39:05.572Z,52.88
2023-01-02T13:41:33.600Z,52.85
2023-01-02T13:44:06.381Z,52.94
2023-01-02T13:47:02.878Z,52.68
2023-01-02T13:49:27.187Z,52.31
2023-01-02T13:51:59.016Z,52.21
2023-01-02T13:54:37.495Z,51.99
2023-01-02T13:57:27.692Z,51.63
2023-01-02T14:00:25.089Z,51.02
2023-01-02T14:03:23.159Z,51.05
2023-01-02T14:06:02.344Z,50.71
2023-01-02T14:08:36.854Z,51.42
2023-01-02T14:11:06.473Z,51.41
2023-01-02T14:13:46.959Z,51.56
2023-01-02T14:16:18.257Z,51.44
2023-01-02T14:18:46.787Z,51.46
2023-01-02T14:21:19.076Z,51.31
2023-01-02T14:24:17.793Z,51.26
2023-01-02T14:26:43.451Z,51.23
2023-01-02T14:29:17.400Z,51.21
2023-01-02T14:31:47.034Z,51.18
2023-01-02T14:34:25.798Z,51.04
2023-01-02T14:36:56.789Z,50.93
2023-01-02T14:39:34.409Z,50.76
2023-01-02T14:42:11.324Z,50.90
2023-01-02T14:44:54.754Z,50.83
2023-01-02T14:47:36.724Z,50.74
2023-01-02T14:50:08.411Z,50.67
2023-01-02T14:52:39.851Z,50.51
2023-01-02T14:55:09.203Z,50.28
2023-01-02T14:57:39.707Z,49.96
2023-01-02T15:00:26.965Z,50.36
2023-01-02T15:03:32.068Z,50.46
2023-01-02T15:06:42.622Z,50.51
2023-01-02T15:09:21.727Z,49.47
2023-01-02T15:11:58.697Z,50.31
2023-01-02T15:14:25.969Z,50.44
2023-01-02T15:16:59.651Z,50.41
2023-01-02T15:19:29.708Z,50.72
2023-01-02T15:21:59.244Z,50.65
2023-01-02T15:24:30.503Z,50.69
2023-01-02T15:27:22.602Z,50.68
2023-01-02T15:29:51.633Z,50.83
2023-01-02T15:32:21.921Z,50.75
2023-01-02T15:34:51.896Z,50.56
2023-01-02T15:37:22.625Z,50.45
2023-01-02T15:39:53.722Z,50.40
2023-01-02T15:42:24.484Z,50.24
2023-01-02T15:44:51.643Z,50.32
2023-01-02T15:47:56.032Z,50.70
2023-01-02T15:50:31.856Z,50.75
2023-01-02T15:53:04.177Z,50.50
2023-01-02T15:55:39.252Z,50.42
2023-01-02T15:58:15.103Z,50.25
2023-01-02T16:00:46.156Z,50.08
2023-01-02T16:04:01.142Z,49.79
2023-01-02T16:06:32.403Z,50.04
2023-01-02T16:09:00.157Z,50.24
2023-01-02T16:11:30.664Z,49.21
2023-01-02T16:14:09.191Z,48.70
2023-01-02T16:17:00.402Z,48.98
2023-01-02T16:20:10.812Z,49.13
2023-01-02T16:22:57.108Z,49.11
2023-01-02T16:25:23.942Z,48.94
2023-01-02T16:27:59.526Z,49.02
2023-01-02T16:30:32.640Z,48.98
2023-01-02T16:33:24.524Z,49.35
2023-01-02T16:36:00.639Z,49.36
2023-01-02T16:38:31.409Z,49.16
2023-01-02T16:41:00.137Z,48.98
2023-01-02T16:43:29.781Z,49.13
2023-01-02T16:46:00.354Z,49.05
2023-01-02T16:48:29.447Z,48.85
2023-01-02T16:50:59.353Z,49.09
2023-01-02T16:53:30.339Z,49.27
2023-01-02T16:56:00.816Z,49.09
2023-01-02T16:58:27.681Z,49.13
2023-01-02T17:00:56.468Z,49.14
2023-01-02T17:03:29.608Z,48.83
2023-01-02T17:06:04.417Z,49.21
2023-01-02T17:08:32.281Z,49.21
2023-01-02T17:11:02.372Z,49.32
2023-01-02T17:13:29.977Z,49.16
2023-01-02T17:16:02.683Z,49.21
2023-01-02T17:18:29.562Z,49.23
2023-01-02T17:20:56.166Z,49.03
2023-01-02T17:23:23.023Z,49.18
2023-01-02T17:25:52.421Z,49.26
2023-01-02T17:28:19.733Z,49.23
2023-01-02T17:30:47.435Z,49.35
2023-01-02T17:33:24.861Z,49.32
2023-01-02T17:35:51.986Z,49.61
2023-01-02T17:38:19.304Z,49.80
2023-01-02T17:40:55.675Z,49.92
2023-01-02T17:43:22.382Z,49.93
2023-01-02T17:45:52.487Z,49.92
2023-01-02T17:48:24.161Z,50.08
2023-01-02T17:50:52.508Z,50.11
2023-01-02T17:53:41.540Z,50.05
2023-01-02T17:56:21.468Z,50.12
2023-01-02T17:58:52.803Z,50.21
2023-01-02T18:01:21.378Z,50.36
2023-01-02T18:03:49.121Z,50.46
2023-01-02T18:06:58.434Z,50.49
2023-01-02T18:12:53.811Z,50.18
2023-01-02T18:15:26.739Z,50.01
2023-01-02T18:20:52.346Z,49.95
2023-01-02T18:23:19.249Z,49.92
2023-01-02T18:32:24.116Z,50.03
2023-01-02T18:34:59.224Z,49.97
2023-01-02T18:40:51.460Z,50.00
2023-01-02T18:43:22.111Z,49.98
2023-01-02T18:49:39.672Z,49.85
2023-01-02T18:55:32.027Z,49.75
2023-01-02T18:58:38.994Z,49.56
2023-01-02T19:05:11.833Z,49.51
2023-01-02T19:07:39.433Z,49.45
2023-01-02T19:10:28.806Z,49.33
2023-01-02T19:13:06.464Z,49.36
2023-01-02T19:15:44.873Z,49.17
2023-01-02T19:21:53.172Z,49.10
2023-01-02T19:25:05.411Z,48.62
2023-01-02T19:27:39.472Z,48.10
2023-01-02T19:30:32.807Z,47.68
2023-01-02T19:32:59.790Z,47.52
2023-01-02T19:35:55.860Z,48.30
2023-01-02T19:51:26.298Z,49.52
2023-01-02T19:57:33.940Z,49.62
2023-01-02T20:25:56.643Z,48.98
2023-01-02T20:35:03.793Z,48.71
2023-01-02T20:37:51.997Z,48.61
2023-01-02T20:40:57.405Z,48.43
2023-01-02T20:43:27.123Z,48.35
2023-01-02T20:45:56.820Z,48.33
2023-01-02T20:48:46.601Z,48.20
2023-01-02T20:51:13.485Z,48.45
2023-01-02T20:57:13.080Z,48.31
2023-01-02T21:06:07.937Z,48.50
2023-01-02T21:08:55.747Z,48.62
2023-01-02T21:12:02.279Z,48.51
2023-01-02T21:14:37.729Z,48.70
2023-01-02T21:17:07.157Z,48.67
2023-01-02T21:20:14.054Z,48.82
2023-01-02T21:25:57.696Z,48.54
2023-01-02T21:34:51.003Z,48.64
2023-01-02T21:41:18.601Z,48.60
2023-01-02T21:43:47.454Z,48.58
2023-01-02T21:49:45.687Z,48.59
2023-01-02T21:52:36.862Z,48.47
2023-01-02T21:55:25.535Z,48.44
2023-01-02T21:58:13.778Z,48.41
2023-01-02T22:00:49.352Z,48.46
2023-01-02T22:03:22.509Z,48.39
2023-01-02T22:05:52.437Z,48.42
2023-01-02T22:08:19.271Z,48.39
2023-01-02T22:10:46.171Z,48.40
2023-01-02T22:13:16.663Z,48.39
2023-01-02T22:15:43.820Z,48.63
2023-01-02T22:18:13.741Z,48.73
2023-01-02T22:20:46.079Z,48.94
2023-01-02T22:23:12.795Z,49.08
2023-01-02T22:25:39.512Z,49.16
2023-01-02T22:28:06.146Z,48.82
2023-01-02T22:30:35.755Z,48.92
2023-01-02T22:33:02.671Z,48.82
2023-01-02T22:35:29.558Z,48.76
2023-01-02T22:38:04.262Z,48.68
2023-01-02T22:40:30.942Z,48.76
2023-01-02T22:43:05.417Z,48.81
2023-01-02T22:45:50.037Z,48.83
2023-01-02T22:48:23.621Z,48.81
2023-01-02T22:50:59.640Z,48.81
2023-01-02T22:53:32.656Z,48.63
2023-01-02T22:56:00.481Z,48.63
2023-01-02T22:58:27.194Z,48.50
2023-01-02T23:01:07.283Z,48.69
2023-01-02T23:03:40.375Z,48.55
2023-01-02T23:06:09.975Z,48.57
2023-01-02T23:08:41.295Z,48.63
2023-01-02T23:11:09.181Z,48.55
2023-01-02T23:13:40.501Z,48.74
2023-01-02T23:16:28.785Z,48.56
2023-01-02T23:19:00.474Z,48.71
2023-01-02T23:21:37.193Z,48.69
2023-01-02T23:24:05.414Z,48.65
2023-01-02T23:26:52.645Z,48.68
2023-01-02T23:29:24.159Z,48.70
2023-01-02T23:31:52.100Z,48.48
2023-01-02T23:34:21.624Z,48.58
2023-01-02T23:36:52.143Z,48.60
2023-01-02T23:39:21.757Z,48.44
2023-01-02T23:41:49.332Z,48.42
2023-01-02T23:44:17.168Z,48.63
2023-01-02T23:46:47.039Z,48.41
2023-01-02T23:49:20.051Z,48.44
2023-01-02T23:51:51.143Z,48.54
2023-01-02T23:54:18.422Z,48.42
2023-01-02T23:56:47.738Z,48.45
2023-01-02T23:59:24.924Z,48.36
